sensor_id;sensor_type;location;lat;lon;timestamp;P1;durP1;ratioP1;P2;durP2;ratioP2
71423;SDS011;59240;51.370;-0.486;2023-02-28T00:00:30;6.47;;;0.93;;
71423;SDS011;59240;51.370;-0.486;2023-02-28T00:02:57;10.60;;;0.88;;
71423;SDS011;59240;51.370;-0.486;2023-02-28T00:05:25;7.30;;;1.35;;
71423;SDS011;59240;51.370;-0.486;2023-02-28T00:07:53;6.43;;;1.03;;
71423;SDS011;59240;51.370;-0.486;2023-02-28T00:10:20;9.35;;;1.23;;
71423;SDS011;59240;51.370;-0.486;2023-02-28T00:12:50;6.03;;;0.80;;
71423;SDS011;59240;51.370;-0.486;2023-02-28T00:15:17;5.50;;;0.90;;
71423;SDS011;59240;51.370;-0.486;2023-02-28T00:17:44;5.18;;;0.80;;
71423;SDS011;59240;51.370;-0.486;2023-02-28T00:20:12;6.57;;;1.03;;
71423;SDS011;59240;51.370;-0.486;2023-02-28T00:22:40;7.22;;;1.00;;
71423;SDS011;59240;51.370;-0.486;2023-02-28T00:25:10;10.07;;;0.93;;
71423;SDS011;59240;51.370;-0.486;2023-02-28T00:27:38;6.25;;;0.73;;
71423;SDS011;59240;51.370;-0.486;2023-02-28T00:30:06;4.35;;;0.90;;
71423;SDS011;59240;51.370;-0.486;2023-02-28T00:32:35;13.30;;;1.07;;
71423;SDS011;59240;51.370;-0.486;2023-02-28T00:35:02;5.80;;;0.98;;
71423;SDS011;59240;51.370;-0.486;2023-02-28T00:37:29;6.88;;;0.90;;
71423;SDS011;59240;51.370;-0.486;2023-02-28T00:39:56;9.15;;;1.13;;
71423;SDS011;59240;51.370;-0.486;2023-02-28T00:42:23;5.18;;;0.70;;
71423;SDS011;59240;51.370;-0.486;2023-02-28T00:44:50;5.67;;;0.80;;
71423;SDS011;59240;51.370;-0.486;2023-02-28T00:47:17;3.80;;;0.60;;
71423;SDS011;59240;51.370;-0.486;2023-02-28T00:49:43;10.30;;;1.45;;
71423;SDS011;59240;51.370;-0.486;2023-02-28T00:52:10;5.10;;;0.77;;
71423;SDS011;59240;51.370;-0.486;2023-02-28T00:54:36;6.00;;;1.33;;
71423;SDS011;59240;51.370;-0.486;2023-02-28T00:57:03;4.70;;;0.80;;
71423;SDS011;59240;51.370;-0.486;2023-02-28T00:59:30;4.35;;;0.90;;
71423;SDS011;59240;51.370;-0.486;2023-02-28T01:01:56;7.68;;;0.90;;
71423;SDS011;59240;51.370;-0.486;2023-02-28T01:04:23;4.05;;;0.80;;
71423;SDS011;59240;51.370;-0.486;2023-02-28T01:06:49;6.57;;;1.05;;
71423;SDS011;59240;51.370;-0.486;2023-02-28T01:09:16;7.87;;;0.67;;
71423;SDS011;59240;51.370;-0.486;2023-02-28T01:11:43;6.50;;;1.05;;
71423;SDS011;59240;51.370;-0.486;2023-02-28T01:14:13;5.93;;;1.08;;
71423;SDS011;59240;51.370;-0.486;2023-02-28T01:16:41;7.70;;;1.17;;
71423;SDS011;59240;51.370;-0.486;2023-02-28T01:19:08;9.18;;;1.20;;
71423;SDS011;59240;51.370;-0.486;2023-02-28T01:21:34;7.20;;;1.10;;
71423;SDS011;59240;51.370;-0.486;2023-02-28T01:24:02;11.07;;;1.60;;
71423;SDS011;59240;51.370;-0.486;2023-02-28T01:26:30;6.72;;;1.27;;
71423;SDS011;59240;51.370;-0.486;2023-02-28T01:28:57;9.18;;;1.35;;
71423;SDS011;59240;51.370;-0.486;2023-02-28T01:31:24;5.00;;;1.00;;
71423;SDS011;59240;51.370;-0.486;2023-02-28T01:33:51;6.43;;;1.43;;
71423;SDS011;59240;51.370;-0.486;2023-02-28T01:36:19;8.75;;;1.30;;
71423;SDS011;59240;51.370;-0.486;2023-02-28T01:38:47;9.75;;;1.45;;
71423;SDS011;59240;51.370;-0.486;2023-02-28T01:41:16;6.50;;;1.08;;
71423;SDS011;59240;51.370;-0.486;2023-02-28T01:46:11;10.83;;;1.73;;
71423;SDS011;59240;51.370;-0.486;2023-02-28T01:48:40;7.10;;;1.10;;
71423;SDS011;59240;51.370;-0.486;2023-02-28T01:51:11;5.45;;;1.30;;
71423;SDS011;59240;51.370;-0.486;2023-02-28T01:53:46;7.72;;;1.83;;
71423;SDS011;59240;51.370;-0.486;2023-02-28T01:56:18;6.38;;;1.25;;
71423;SDS011;59240;51.370;-0.486;2023-02-28T01:58:52;8.37;;;1.73;;
71423;SDS011;59240;51.370;-0.486;2023-02-28T02:01:20;6.35;;;1.38;;
71423;SDS011;59240;51.370;-0.486;2023-02-28T02:03:56;6.28;;;1.40;;
71423;SDS011;59240;51.370;-0.486;2023-02-28T02:06:25;6.35;;;1.45;;
71423;SDS011;59240;51.370;-0.486;2023-02-28T02:08:56;7.88;;;1.30;;
71423;SDS011;59240;51.370;-0.486;2023-02-28T02:11:23;7.50;;;1.33;;
71423;SDS011;59240;51.370;-0.486;2023-02-28T02:27:19;8.23;;;1.67;;
71423;SDS011;59240;51.370;-0.486;2023-02-28T02:32:28;8.48;;;1.85;;
71423;SDS011;59240;51.370;-0.486;2023-02-28T02:45:34;10.82;;;1.65;;
71423;SDS011;59240;51.370;-0.486;2023-02-28T02:48:06;7.65;;;1.80;;
71423;SDS011;59240;51.370;-0.486;2023-02-28T02:50:37;7.07;;;1.40;;
71423;SDS011;59240;51.370;-0.486;2023-02-28T02:53:08;7.88;;;1.10;;
71423;SDS011;59240;51.370;-0.486;2023-02-28T02:55:38;5.70;;;1.50;;
71423;SDS011;59240;51.370;-0.486;2023-02-28T02:58:14;9.52;;;1.92;;
71423;SDS011;59240;51.370;-0.486;2023-02-28T03:00:45;8.23;;;1.63;;
71423;SDS011;59240;51.370;-0.486;2023-02-28T03:03:16;7.50;;;1.80;;
71423;SDS011;59240;51.370;-0.486;2023-02-28T03:08:16;9.70;;;2.00;;
71423;SDS011;59240;51.370;-0.486;2023-02-28T03:10:44;7.13;;;1.83;;
71423;SDS011;59240;51.370;-0.486;2023-02-28T03:19:06;7.25;;;1.90;;
71423;SDS011;59240;51.370;-0.486;2023-02-28T03:22:09;8.88;;;2.10;;
71423;SDS011;59240;51.370;-0.486;2023-02-28T03:33:17;9.18;;;1.85;;
71423;SDS011;59240;51.370;-0.486;2023-02-28T03:35:47;9.32;;;1.63;;
71423;SDS011;59240;51.370;-0.486;2023-02-28T03:38:24;10.68;;;2.00;;
71423;SDS011;59240;51.370;-0.486;2023-02-28T03:41:00;12.32;;;1.90;;
71423;SDS011;59240;51.370;-0.486;2023-02-28T03:43:33;7.80;;;2.07;;
71423;SDS011;59240;51.370;-0.486;2023-02-28T03:46:05;10.80;;;2.20;;
71423;SDS011;59240;51.370;-0.486;2023-02-28T03:48:45;9.57;;;2.20;;
71423;SDS011;59240;51.370;-0.486;2023-02-28T03:51:34;11.00;;;2.53;;
71423;SDS011;59240;51.370;-0.486;2023-02-28T03:54:08;8.57;;;2.15;;
71423;SDS011;59240;51.370;-0.486;2023-02-28T03:56:40;8.33;;;2.00;;
71423;SDS011;59240;51.370;-0.486;2023-02-28T03:59:15;10.13;;;2.25;;
71423;SDS011;59240;51.370;-0.486;2023-02-28T04:01:49;11.77;;;2.30;;
71423;SDS011;59240;51.370;-0.486;2023-02-28T04:04:17;5.32;;;1.58;;
71423;SDS011;59240;51.370;-0.486;2023-02-28T04:06:45;8.70;;;2.05;;
71423;SDS011;59240;51.370;-0.486;2023-02-28T04:09:12;10.47;;;2.60;;
71423;SDS011;59240;51.370;-0.486;2023-02-28T04:11:45;9.27;;;2.15;;
71423;SDS011;59240;51.370;-0.486;2023-02-28T04:14:17;12.60;;;2.22;;
71423;SDS011;59240;51.370;-0.486;2023-02-28T04:16:44;10.07;;;2.35;;
71423;SDS011;59240;51.370;-0.486;2023-02-28T04:19:11;8.82;;;2.63;;
71423;SDS011;59240;51.370;-0.486;2023-02-28T04:21:50;13.47;;;2.77;;
71423;SDS011;59240;51.370;-0.486;2023-02-28T04:24:18;12.85;;;2.38;;
71423;SDS011;59240;51.370;-0.486;2023-02-28T04:26:53;7.95;;;1.85;;
71423;SDS011;59240;51.370;-0.486;2023-02-28T04:29:22;9.70;;;2.28;;
71423;SDS011;59240;51.370;-0.486;2023-02-28T04:31:51;7.30;;;1.95;;
71423;SDS011;59240;51.370;-0.486;2023-02-28T04:34:20;10.93;;;2.13;;
71423;SDS011;59240;51.370;-0.486;2023-02-28T04:36:47;9.30;;;2.30;;
71423;SDS011;59240;51.370;-0.486;2023-02-28T04:39:36;11.10;;;1.98;;
71423;SDS011;59240;51.370;-0.486;2023-02-28T04:42:03;8.80;;;2.08;;
71423;SDS011;59240;51.370;-0.486;2023-02-28T04:44:30;7.47;;;1.98;;
71423;SDS011;59240;51.370;-0.486;2023-02-28T04:46:57;8.70;;;2.43;;
71423;SDS011;59240;51.370;-0.486;2023-02-28T04:49:25;10.65;;;2.05;;
71423;SDS011;59240;51.370;-0.486;2023-02-28T04:51:51;10.10;;;2.65;;
71423;SDS011;59240;51.370;-0.486;2023-02-28T04:54:19;15.32;;;2.97;;
71423;SDS011;59240;51.370;-0.486;2023-02-28T04:56:46;8.90;;;2.50;;
71423;SDS011;59240;51.370;-0.486;2023-02-28T04:59:14;11.40;;;3.10;;
71423;SDS011;59240;51.370;-0.486;2023-02-28T05:01:44;12.23;;;2.47;;
71423;SDS011;59240;51.370;-0.486;2023-02-28T05:04:13;8.48;;;2.20;;
71423;SDS011;59240;51.370;-0.486;2023-02-28T05:06:40;9.27;;;2.20;;
71423;SDS011;59240;51.370;-0.486;2023-02-28T05:09:07;11.52;;;2.40;;
71423;SDS011;59240;51.370;-0.486;2023-02-28T05:11:34;9.97;;;3.10;;
71423;SDS011;59240;51.370;-0.486;2023-02-28T05:14:02;10.15;;;2.45;;
71423;SDS011;59240;51.370;-0.486;2023-02-28T05:16:35;12.63;;;2.97;;
71423;SDS011;59240;51.370;-0.486;2023-02-28T05:19:01;12.32;;;2.42;;
71423;SDS011;59240;51.370;-0.486;2023-02-28T05:23:57;9.23;;;2.83;;
71423;SDS011;59240;51.370;-0.486;2023-02-28T05:26:26;7.75;;;2.42;;
71423;SDS011;59240;51.370;-0.486;2023-02-28T05:28:54;11.00;;;2.22;;
71423;SDS011;59240;51.370;-0.486;2023-02-28T05:31:21;8.55;;;2.40;;
71423;SDS011;59240;51.370;-0.486;2023-02-28T05:33:48;12.13;;;2.55;;
71423;SDS011;59240;51.370;-0.486;2023-02-28T05:36:15;6.97;;;2.03;;
71423;SDS011;59240;51.370;-0.486;2023-02-28T05:38:41;7.15;;;2.22;;
71423;SDS011;59240;51.370;-0.486;2023-02-28T05:41:08;12.43;;;2.53;;
71423;SDS011;59240;51.370;-0.486;2023-02-28T05:43:37;9.02;;;2.42;;
71423;SDS011;59240;51.370;-0.486;2023-02-28T05:46:07;8.38;;;1.92;;
71423;SDS011;59240;51.370;-0.486;2023-02-28T05:48:36;11.20;;;2.33;;
71423;SDS011;59240;51.370;-0.486;2023-02-28T05:51:04;10.52;;;2.08;;
71423;SDS011;59240;51.370;-0.486;2023-02-28T05:53:32;10.88;;;2.38;;
71423;SDS011;59240;51.370;-0.486;2023-02-28T05:55:59;8.38;;;2.90;;
71423;SDS011;59240;51.370;-0.486;2023-02-28T05:58:26;9.55;;;2.17;;
71423;SDS011;59240;51.370;-0.486;2023-02-28T06:00:57;9.30;;;2.20;;
71423;SDS011;59240;51.370;-0.486;2023-02-28T06:03:44;11.93;;;2.20;;
71423;SDS011;59240;51.370;-0.486;2023-02-28T06:06:11;12.02;;;2.67;;
71423;SDS011;59240;51.370;-0.486;2023-02-28T06:08:37;8.77;;;2.05;;
71423;SDS011;59240;51.370;-0.486;2023-02-28T06:11:04;8.13;;;2.35;;
71423;SDS011;59240;51.370;-0.486;2023-02-28T06:13:30;9.43;;;2.30;;
71423;SDS011;59240;51.370;-0.486;2023-02-28T06:16:00;9.35;;;2.58;;
71423;SDS011;59240;51.370;-0.486;2023-02-28T06:18:29;8.35;;;2.50;;
71423;SDS011;59240;51.370;-0.486;2023-02-28T06:20:55;11.80;;;2.75;;
71423;SDS011;59240;51.370;-0.486;2023-02-28T06:23:22;10.38;;;3.05;;
71423;SDS011;59240;51.370;-0.486;2023-02-28T06:25:49;9.90;;;3.00;;
71423;SDS011;59240;51.370;-0.486;2023-02-28T06:28:16;8.75;;;2.65;;
71423;SDS011;59240;51.370;-0.486;2023-02-28T06:30:42;12.00;;;3.08;;
71423;SDS011;59240;51.370;-0.486;2023-02-28T06:33:11;12.60;;;2.80;;
71423;SDS011;59240;51.370;-0.486;2023-02-28T06:35:42;7.90;;;2.60;;
71423;SDS011;59240;51.370;-0.486;2023-02-28T06:38:42;9.23;;;2.70;;
71423;SDS011;59240;51.370;-0.486;2023-02-28T06:41:10;14.88;;;3.60;;
71423;SDS011;59240;51.370;-0.486;2023-02-28T06:43:40;12.82;;;3.10;;
71423;SDS011;59240;51.370;-0.486;2023-02-28T06:46:09;12.45;;;2.65;;
71423;SDS011;59240;51.370;-0.486;2023-02-28T06:48:45;11.27;;;2.78;;
71423;SDS011;59240;51.370;-0.486;2023-02-28T06:51:13;14.87;;;2.80;;
71423;SDS011;59240;51.370;-0.486;2023-02-28T06:53:42;11.70;;;2.55;;
71423;SDS011;59240;51.370;-0.486;2023-02-28T06:56:11;14.35;;;3.72;;
71423;SDS011;59240;51.370;-0.486;2023-02-28T06:58:39;13.73;;;3.20;;
71423;SDS011;59240;51.370;-0.486;2023-02-28T07:01:07;11.95;;;3.10;;
71423;SDS011;59240;51.370;-0.486;2023-02-28T07:03:34;11.13;;;2.97;;
71423;SDS011;59240;51.370;-0.486;2023-02-28T07:06:02;10.55;;;2.78;;
71423;SDS011;59240;51.370;-0.486;2023-02-28T07:08:31;10.52;;;3.50;;
71423;SDS011;59240;51.370;-0.486;2023-02-28T07:10:59;10.73;;;3.17;;
71423;SDS011;59240;51.370;-0.486;2023-02-28T07:13:25;10.10;;;2.95;;
71423;SDS011;59240;51.370;-0.486;2023-02-28T07:16:02;14.23;;;4.07;;
71423;SDS011;59240;51.370;-0.486;2023-02-28T07:18:31;13.40;;;3.05;;
71423;SDS011;59240;51.370;-0.486;2023-02-28T07:20:58;13.52;;;3.78;;
71423;SDS011;59240;51.370;-0.486;2023-02-28T07:23:28;11.05;;;3.92;;
71423;SDS011;59240;51.370;-0.486;2023-02-28T07:25:54;11.95;;;4.05;;
71423;SDS011;59240;51.370;-0.486;2023-02-28T07:28:21;13.30;;;4.10;;
71423;SDS011;59240;51.370;-0.486;2023-02-28T07:30:47;12.23;;;4.25;;
71423;SDS011;59240;51.370;-0.486;2023-02-28T07:33:14;12.00;;;4.50;;
71423;SDS011;59240;51.370;-0.486;2023-02-28T07:35:41;11.07;;;4.13;;
71423;SDS011;59240;51.370;-0.486;2023-02-28T07:38:09;15.48;;;3.97;;
71423;SDS011;59240;51.370;-0.486;2023-02-28T07:40:38;14.33;;;3.43;;
71423;SDS011;59240;51.370;-0.486;2023-02-28T07:43:04;14.05;;;3.80;;
71423;SDS011;59240;51.370;-0.486;2023-02-28T07:45:31;12.70;;;5.10;;
71423;SDS011;59240;51.370;-0.486;2023-02-28T07:48:00;15.63;;;4.82;;
71423;SDS011;59240;51.370;-0.486;2023-02-28T07:50:28;11.77;;;4.47;;
71423;SDS011;59240;51.370;-0.486;2023-02-28T07:52:58;15.60;;;5.00;;
71423;SDS011;59240;51.370;-0.486;2023-02-28T07:55:25;15.60;;;4.55;;
71423;SDS011;59240;51.370;-0.486;2023-02-28T07:57:52;13.85;;;4.35;;
71423;SDS011;59240;51.370;-0.486;2023-02-28T08:00:23;14.30;;;4.75;;
71423;SDS011;59240;51.370;-0.486;2023-02-28T08:02:50;12.25;;;4.10;;
71423;SDS011;59240;51.370;-0.486;2023-02-28T08:05:19;12.03;;;4.43;;
71423;SDS011;59240;51.370;-0.486;2023-02-28T08:07:48;17.63;;;6.13;;
71423;SDS011;59240;51.370;-0.486;2023-02-28T08:10:15;14.55;;;5.65;;
71423;SDS011;59240;51.370;-0.486;2023-02-28T08:12:42;12.68;;;4.70;;
71423;SDS011;59240;51.370;-0.486;2023-02-28T08:15:09;17.08;;;5.55;;
71423;SDS011;59240;51.370;-0.486;2023-02-28T08:17:36;14.50;;;5.20;;
71423;SDS011;59240;51.370;-0.486;2023-02-28T08:20:02;11.63;;;4.60;;
71423;SDS011;59240;51.370;-0.486;2023-02-28T08:22:30;14.48;;;4.43;;
71423;SDS011;59240;51.370;-0.486;2023-02-28T08:24:56;13.15;;;3.95;;
71423;SDS011;59240;51.370;-0.486;2023-02-28T08:27:23;13.68;;;4.30;;
71423;SDS011;59240;51.370;-0.486;2023-02-28T08:29:50;10.73;;;3.80;;
71423;SDS011;59240;51.370;-0.486;2023-02-28T08:32:17;14.00;;;3.90;;
71423;SDS011;59240;51.370;-0.486;2023-02-28T08:34:54;14.68;;;4.50;;
71423;SDS011;59240;51.370;-0.486;2023-02-28T08:37:22;13.55;;;3.88;;
71423;SDS011;59240;51.370;-0.486;2023-02-28T08:39:48;13.27;;;4.47;;
71423;SDS011;59240;51.370;-0.486;2023-02-28T08:42:15;12.17;;;3.70;;
71423;SDS011;59240;51.370;-0.486;2023-02-28T08:44:41;10.55;;;3.47;;
71423;SDS011;59240;51.370;-0.486;2023-02-28T08:47:08;12.20;;;3.55;;
71423;SDS011;59240;51.370;-0.486;2023-02-28T08:49:36;14.07;;;3.50;;
71423;SDS011;59240;51.370;-0.486;2023-02-28T08:52:04;12.00;;;3.67;;
71423;SDS011;59240;51.370;-0.486;2023-02-28T08:54:30;9.67;;;3.07;;
71423;SDS011;59240;51.370;-0.486;2023-02-28T08:56:59;9.75;;;3.47;;
71423;SDS011;59240;51.370;-0.486;2023-02-28T08:59:26;11.35;;;2.90;;
71423;SDS011;59240;51.370;-0.486;2023-02-28T09:01:52;13.48;;;3.42;;
71423;SDS011;59240;51.370;-0.486;2023-02-28T09:04:19;10.02;;;3.53;;
71423;SDS011;59240;51.370;-0.486;2023-02-28T09:06:47;9.60;;;2.97;;
71423;SDS011;59240;51.370;-0.486;2023-02-28T09:09:15;10.77;;;2.80;;
71423;SDS011;59240;51.370;-0.486;2023-02-28T09:11:42;9.98;;;3.65;;
71423;SDS011;59240;51.370;-0.486;2023-02-28T09:14:08;11.57;;;2.88;;
71423;SDS011;59240;51.370;-0.486;2023-02-28T09:16:35;7.53;;;2.15;;
71423;SDS011;59240;51.370;-0.486;2023-02-28T09:19:02;14.00;;;4.27;;
71423;SDS011;59240;51.370;-0.486;2023-02-28T09:21:29;14.45;;;6.05;;
71423;SDS011;59240;51.370;-0.486;2023-02-28T09:23:56;9.30;;;2.30;;
71423;SDS011;59240;51.370;-0.486;2023-02-28T09:26:23;9.73;;;2.50;;
71423;SDS011;59240;51.370;-0.486;2023-02-28T09:28:53;7.25;;;1.95;;
71423;SDS011;59240;51.370;-0.486;2023-02-28T09:31:22;6.63;;;2.20;;
71423;SDS011;59240;51.370;-0.486;2023-02-28T09:33:50;9.23;;;1.85;;
71423;SDS011;59240;51.370;-0.486;2023-02-28T09:36:19;7.20;;;1.65;;
71423;SDS011;59240;51.370;-0.486;2023-02-28T09:38:47;5.50;;;1.42;;
71423;SDS011;59240;51.370;-0.486;2023-02-28T09:41:17;6.78;;;1.70;;
71423;SDS011;59240;51.370;-0.486;2023-02-28T09:43:50;4.03;;;0.90;;
71423;SDS011;59240;51.370;-0.486;2023-02-28T09:46:37;9.38;;;1.83;;
71423;SDS011;59240;51.370;-0.486;2023-02-28T09:49:19;5.65;;;1.52;;
71423;SDS011;59240;51.370;-0.486;2023-02-28T09:52:05;6.53;;;1.23;;
71423;SDS011;59240;51.370;-0.486;2023-02-28T09:54:36;7.75;;;1.80;;
71423;SDS011;59240;51.370;-0.486;2023-02-28T10:00:07;8.93;;;1.58;;
71423;SDS011;59240;51.370;-0.486;2023-02-28T10:05:31;7.25;;;1.67;;
71423;SDS011;59240;51.370;-0.486;2023-02-28T10:08:03;7.95;;;1.73;;
71423;SDS011;59240;51.370;-0.486;2023-02-28T10:10:40;4.90;;;1.37;;
71423;SDS011;59240;51.370;-0.486;2023-02-28T10:13:32;6.88;;;1.95;;
71423;SDS011;59240;51.370;-0.486;2023-02-28T10:16:08;7.70;;;1.58;;
71423;SDS011;59240;51.370;-0.486;2023-02-28T10:18:46;5.28;;;1.38;;
71423;SDS011;59240;51.370;-0.486;2023-02-28T10:21:23;5.97;;;1.20;;
71423;SDS011;59240;51.370;-0.486;2023-02-28T10:24:05;7.40;;;1.67;;
71423;SDS011;59240;51.370;-0.486;2023-02-28T10:26:45;5.25;;;1.30;;
71423;SDS011;59240;51.370;-0.486;2023-02-28T10:29:13;5.15;;;1.10;;
71423;SDS011;59240;51.370;-0.486;2023-02-28T10:31:40;4.70;;;0.90;;
71423;SDS011;59240;51.370;-0.486;2023-02-28T10:34:08;5.93;;;0.95;;
71423;SDS011;59240;51.370;-0.486;2023-02-28T10:36:40;5.50;;;0.90;;
71423;SDS011;59240;51.370;-0.486;2023-02-28T10:42:03;6.50;;;0.70;;
71423;SDS011;59240;51.370;-0.486;2023-02-28T10:44:32;4.10;;;0.90;;
71423;SDS011;59240;51.370;-0.486;2023-02-28T10:47:00;4.93;;;0.80;;
71423;SDS011;59240;51.370;-0.486;2023-02-28T10:49:27;5.77;;;0.83;;
71423;SDS011;59240;51.370;-0.486;2023-02-28T10:51:56;6.18;;;1.15;;
71423;SDS011;59240;51.370;-0.486;2023-02-28T10:54:34;4.70;;;0.75;;
71423;SDS011;59240;51.370;-0.486;2023-02-28T10:57:08;4.35;;;0.77;;
71423;SDS011;59240;51.370;-0.486;2023-02-28T10:59:36;8.23;;;0.70;;
71423;SDS011;59240;51.370;-0.486;2023-02-28T11:07:51;2.78;;;0.55;;
71423;SDS011;59240;51.370;-0.486;2023-02-28T11:10:45;4.20;;;0.60;;
71423;SDS011;59240;51.370;-0.486;2023-02-28T11:13:21;3.30;;;0.50;;
71423;SDS011;59240;51.370;-0.486;2023-02-28T11:15:55;3.70;;;0.70;;
71423;SDS011;59240;51.370;-0.486;2023-02-28T11:21:22;5.00;;;0.90;;
71423;SDS011;59240;51.370;-0.486;2023-02-28T11:23:56;4.50;;;0.88;;
71423;SDS011;59240;51.370;-0.486;2023-02-28T11:26:35;6.28;;;0.73;;
71423;SDS011;59240;51.370;-0.486;2023-02-28T11:37:30;3.90;;;0.60;;
71423;SDS011;59240;51.370;-0.486;2023-02-28T11:39:58;4.43;;;0.70;;
71423;SDS011;59240;51.370;-0.486;2023-02-28T11:45:35;3.65;;;0.55;;
71423;SDS011;59240;51.370;-0.486;2023-02-28T11:48:23;5.32;;;0.80;;
71423;SDS011;59240;51.370;-0.486;2023-02-28T12:05:20;4.53;;;1.05;;
71423;SDS011;59240;51.370;-0.486;2023-02-28T12:13:25;8.63;;;2.05;;
71423;SDS011;59240;51.370;-0.486;2023-02-28T12:16:16;7.35;;;2.20;;
71423;SDS011;59240;51.370;-0.486;2023-02-28T12:27:00;6.97;;;1.90;;
71423;SDS011;59240;51.370;-0.486;2023-02-28T12:29:33;8.57;;;2.17;;
71423;SDS011;59240;51.370;-0.486;2023-02-28T12:32:31;8.38;;;1.65;;
71423;SDS011;59240;51.370;-0.486;2023-02-28T12:35:06;7.85;;;1.98;;
71423;SDS011;59240;51.370;-0.486;2023-02-28T12:37:50;6.20;;;1.40;;
71423;SDS011;59240;51.370;-0.486;2023-02-28T12:40:23;6.57;;;1.55;;
71423;SDS011;59240;51.370;-0.486;2023-02-28T12:43:03;8.07;;;2.33;;
71423;SDS011;59240;51.370;-0.486;2023-02-28T12:45:39;7.05;;;1.70;;
71423;SDS011;59240;51.370;-0.486;2023-02-28T12:48:14;6.07;;;1.88;;
71423;SDS011;59240;51.370;-0.486;2023-02-28T12:50:50;9.50;;;2.00;;
71423;SDS011;59240;51.370;-0.486;2023-02-28T12:53:22;7.50;;;1.73;;
71423;SDS011;59240;51.370;-0.486;2023-02-28T12:58:36;8.32;;;1.98;;
71423;SDS011;59240;51.370;-0.486;2023-02-28T13:09:57;8.57;;;1.35;;
71423;SDS011;59240;51.370;-0.486;2023-02-28T13:12:26;6.82;;;1.27;;
71423;SDS011;59240;51.370;-0.486;2023-02-28T13:15:39;6.72;;;1.50;;
71423;SDS011;59240;51.370;-0.486;2023-02-28T13:17:49;4.90;;;1.10;;
71423;SDS011;59240;51.370;-0.486;2023-02-28T13:20:18;5.40;;;1.15;;
71423;SDS011;59240;51.370;-0.486;2023-02-28T13:22:51;6.68;;;1.65;;
71423;SDS011;59240;51.370;-0.486;2023-02-28T13:27:48;5.68;;;1.00;;
71423;SDS011;59240;51.370;-0.486;2023-02-28T13:33:33;8.38;;;2.00;;
71423;SDS011;59240;51.370;-0.486;2023-02-28T13:38:40;5.20;;;1.00;;
71423;SDS011;59240;51.370;-0.486;2023-02-28T13:44:16;7.00;;;1.23;;
71423;SDS011;59240;51.370;-0.486;2023-02-28T13:52:02;5.88;;;1.00;;
71423;SDS011;59240;51.370;-0.486;2023-02-28T14:05:41;4.47;;;0.98;;
71423;SDS011;59240;51.370;-0.486;2023-02-28T14:08:21;4.88;;;0.88;;
71423;SDS011;59240;51.370;-0.486;2023-02-28T14:10:50;5.37;;;0.90;;
71423;SDS011;59240;51.370;-0.486;2023-02-28T14:13:42;7.15;;;1.30;;
71423;SDS011;59240;51.370;-0.486;2023-02-28T14:16:13;4.78;;;0.77;;
71423;SDS011;59240;51.370;-0.486;2023-02-28T14:18:55;5.80;;;1.13;;
71423;SDS011;59240;51.370;-0.486;2023-02-28T14:21:26;5.57;;;0.82;;
71423;SDS011;59240;51.370;-0.486;2023-02-28T14:24:16;6.20;;;0.90;;
71423;SDS011;59240;51.370;-0.486;2023-02-28T14:38:46;5.33;;;0.63;;
71423;SDS011;59240;51.370;-0.486;2023-02-28T14:41:21;2.42;;;0.30;;
71423;SDS011;59240;51.370;-0.486;2023-02-28T14:43:54;3.72;;;0.38;;
71423;SDS011;59240;51.370;-0.486;2023-02-28T14:46:22;2.72;;;0.38;;
71423;SDS011;59240;51.370;-0.486;2023-02-28T14:48:54;2.03;;;0.20;;
71423;SDS011;59240;51.370;-0.486;2023-02-28T14:51:21;3.23;;;0.40;;
71423;SDS011;59240;51.370;-0.486;2023-02-28T14:53:50;6.88;;;0.50;;
71423;SDS011;59240;51.370;-0.486;2023-02-28T14:56:28;4.40;;;0.50;;
71423;SDS011;59240;51.370;-0.486;2023-02-28T14:59:00;4.95;;;0.70;;
71423;SDS011;59240;51.370;-0.486;2023-02-28T15:01:27;5.95;;;0.60;;
71423;SDS011;59240;51.370;-0.486;2023-02-28T15:04:04;3.00;;;0.47;;
71423;SDS011;59240;51.370;-0.486;2023-02-28T15:06:32;3.45;;;0.70;;
71423;SDS011;59240;51.370;-0.486;2023-02-28T15:09:06;2.38;;;0.32;;
71423;SDS011;59240;51.370;-0.486;2023-02-28T15:11:41;3.13;;;0.43;;
71423;SDS011;59240;51.370;-0.486;2023-02-28T15:14:15;2.50;;;0.40;;
71423;SDS011;59240;51.370;-0.486;2023-02-28T15:16:46;3.77;;;0.60;;
71423;SDS011;59240;51.370;-0.486;2023-02-28T15:22:20;4.38;;;0.68;;
71423;SDS011;59240;51.370;-0.486;2023-02-28T15:25:00;4.20;;;0.50;;
71423;SDS011;59240;51.370;-0.486;2023-02-28T15:27:31;2.75;;;0.40;;
71423;SDS011;59240;51.370;-0.486;2023-02-28T15:30:00;3.63;;;0.40;;
71423;SDS011;59240;51.370;-0.486;2023-02-28T15:32:33;3.50;;;0.50;;
71423;SDS011;59240;51.370;-0.486;2023-02-28T15:37:53;4.60;;;0.57;;
71423;SDS011;59240;51.370;-0.486;2023-02-28T15:40:25;3.05;;;0.60;;
71423;SDS011;59240;51.370;-0.486;2023-02-28T15:43:05;3.17;;;0.37;;
71423;SDS011;59240;51.370;-0.486;2023-02-28T15:45:34;4.85;;;0.60;;
71423;SDS011;59240;51.370;-0.486;2023-02-28T15:48:22;4.50;;;0.52;;
71423;SDS011;59240;51.370;-0.486;2023-02-28T15:53:43;4.55;;;0.65;;
71423;SDS011;59240;51.370;-0.486;2023-02-28T15:56:25;3.00;;;0.40;;
71423;SDS011;59240;51.370;-0.486;2023-02-28T15:59:12;3.00;;;0.50;;
71423;SDS011;59240;51.370;-0.486;2023-02-28T16:01:44;3.40;;;0.50;;
71423;SDS011;59240;51.370;-0.486;2023-02-28T16:04:15;4.68;;;0.43;;
71423;SDS011;59240;51.370;-0.486;2023-02-28T16:06:47;3.67;;;0.40;;
71423;SDS011;59240;51.370;-0.486;2023-02-28T16:09:32;4.07;;;0.47;;
71423;SDS011;59240;51.370;-0.486;2023-02-28T16:12:01;3.75;;;0.55;;
71423;SDS011;59240;51.370;-0.486;2023-02-28T16:14:31;2.72;;;0.50;;
71423;SDS011;59240;51.370;-0.486;2023-02-28T16:17:05;3.00;;;0.40;;
71423;SDS011;59240;51.370;-0.486;2023-02-28T16:19:40;3.58;;;0.70;;
71423;SDS011;59240;51.370;-0.486;2023-02-28T16:22:10;3.27;;;0.50;;
71423;SDS011;59240;51.370;-0.486;2023-02-28T16:24:40;4.35;;;0.30;;
71423;SDS011;59240;51.370;-0.486;2023-02-28T16:29:59;5.30;;;0.40;;
71423;SDS011;59240;51.370;-0.486;2023-02-28T16:32:47;2.28;;;0.40;;
71423;SDS011;59240;51.370;-0.486;2023-02-28T16:35:14;3.63;;;0.33;;
71423;SDS011;59240;51.370;-0.486;2023-02-28T16:37:41;5.70;;;0.40;;
71423;SDS011;59240;51.370;-0.486;2023-02-28T16:40:12;5.32;;;0.60;;
71423;SDS011;59240;51.370;-0.486;2023-02-28T16:42:44;3.22;;;0.50;;
71423;SDS011;59240;51.370;-0.486;2023-02-28T16:45:16;3.25;;;0.65;;
71423;SDS011;59240;51.370;-0.486;2023-02-28T16:47:50;5.33;;;0.70;;
71423;SDS011;59240;51.370;-0.486;2023-02-28T16:50:19;2.95;;;0.30;;
71423;SDS011;59240;51.370;-0.486;2023-02-28T16:52:49;3.28;;;0.50;;
71423;SDS011;59240;51.370;-0.486;2023-02-28T16:55:18;3.42;;;0.50;;
71423;SDS011;59240;51.370;-0.486;2023-02-28T16:57:47;7.55;;;0.93;;
71423;SDS011;59240;51.370;-0.486;2023-02-28T17:00:24;2.37;;;0.20;;
71423;SDS011;59240;51.370;-0.486;2023-02-28T17:03:00;4.50;;;0.43;;
71423;SDS011;59240;51.370;-0.486;2023-02-28T17:05:35;2.15;;;0.30;;
71423;SDS011;59240;51.370;-0.486;2023-02-28T17:08:04;2.30;;;0.22;;
71423;SDS011;59240;51.370;-0.486;2023-02-28T17:10:31;2.78;;;0.40;;
71423;SDS011;59240;51.370;-0.486;2023-02-28T17:12:58;3.77;;;0.30;;
71423;SDS011;59240;51.370;-0.486;2023-02-28T17:15:39;2.13;;;0.20;;
71423;SDS011;59240;51.370;-0.486;2023-02-28T17:18:08;2.33;;;0.30;;
71423;SDS011;59240;51.370;-0.486;2023-02-28T17:20:39;5.07;;;0.52;;
71423;SDS011;59240;51.370;-0.486;2023-02-28T17:23:11;2.78;;;0.43;;
71423;SDS011;59240;51.370;-0.486;2023-02-28T17:25:37;3.10;;;0.50;;
71423;SDS011;59240;51.370;-0.486;2023-02-28T17:28:04;3.90;;;0.70;;
71423;SDS011;59240;51.370;-0.486;2023-02-28T17:30:31;4.22;;;0.60;;
71423;SDS011;59240;51.370;-0.486;2023-02-28T17:33:00;4.45;;;0.80;;
71423;SDS011;59240;51.370;-0.486;2023-02-28T17:35:27;3.90;;;0.65;;
71423;SDS011;59240;51.370;-0.486;2023-02-28T17:37:56;3.13;;;0.43;;
71423;SDS011;59240;51.370;-0.486;2023-02-28T17:40:22;2.55;;;0.47;;